TimeEST,TemperatureF,Dew PointF,Humidity,Sea Level PressureIn,VisibilityMPH,Wind Direction,Wind SpeedMPH,Gust SpeedMPH,PrecipitationIn,Events,Conditions,WindDirDegrees,DateUTC
12:15 AM,36.1,20.5,53,30.19,10.0,West,16.1,21.9,N/A,,Mostly Cloudy,270,2013-01-04 05:15:00
12:35 AM,36.1,20.1,52,30.19,10.0,Calm,Calm,-,N/A,,Overcast,0,2013-01-04 05:35:00
1:15 AM,36.0,19.8,52,30.19,10.0,Calm,Calm,-,N/A,,Overcast,0,2013-01-04 06:15:00
1:35 AM,35.8,19.4,51,30.20,10.0,West,4.6,18.4,N/A,,Mostly Cloudy,260,2013-01-04 06:35:00
1:55 AM,34.7,20.3,56,30.21,10.0,WSW,10.4,-,N/A,,Mostly Cloudy,250,2013-01-04 06:55:00
2:15 AM,34.9,19.9,55,30.21,10.0,WSW,9.2,17.3,N/A,,Mostly Cloudy,250,2013-01-04 07:15:00
2:35 AM,34.3,19.9,56,30.22,10.0,West,12.7,-,N/A,,Overcast,260,2013-01-04 07:35:00
2:55 AM,34.3,20.1,56,30.22,10.0,WSW,9.2,17.3,N/A,,Overcast,240,2013-01-04 07:55:00
3:15 AM,34.0,19.8,56,30.22,10.0,WSW,10.4,-,N/A,,Overcast,240,2013-01-04 08:15:00
3:35 AM,34.0,19.6,56,30.23,10.0,WSW,3.5,-,N/A,,Overcast,250,2013-01-04 08:35:00
3:55 AM,33.8,20.1,57,30.22,10.0,West,4.6,-,N/A,,Overcast,260,2013-01-04 08:55:00
4:15 AM,33.8,20.3,58,30.22,10.0,Calm,Calm,-,N/A,,Overcast,0,2013-01-04 09:15:00
7:15 AM,33.8,20.3,58,30.21,10.0,West,4.6,10.4,N/A,,Mostly Cloudy,260,2013-01-04 12:15:00
7:35 AM,33.8,20.8,59,30.20,10.0,West,12.7,-,N/A,,Mostly Cloudy,260,2013-01-04 12:35:00
8:15 AM,33.8,20.3,58,30.20,10.0,WSW,10.4,-,N/A,,Scattered Clouds,250,2013-01-04 13:15:00
8:35 AM,33.8,20.8,59,30.19,10.0,WSW,12.7,-,N/A,,Clear,250,2013-01-04 13:35:00
8:55 AM,35.4,20.8,55,30.20,10.0,West,16.1,-,N/A,,Clear,260,2013-01-04 13:55:00
9:15 AM,36.1,21.2,55,30.21,10.0,West,18.4,24.2,N/A,,Scattered Clouds,270,2013-01-04 14:15:00
9:35 AM,36.7,21.0,53,30.22,10.0,West,9.2,16.1,N/A,,Scattered Clouds,260,2013-01-04 14:35:00
9:55 AM,37.2,21.0,52,30.23,10.0,WSW,12.7,18.4,N/A,,Scattered Clouds,250,2013-01-04 14:55:00
10:15 AM,37.0,20.7,52,30.23,10.0,West,16.1,24.2,N/A,,Scattered Clouds,260,2013-01-04 15:15:00
10:35 AM,37.4,20.5,51,30.22,10.0,West,12.7,18.4,N/A,,Scattered Clouds,260,2013-01-04 15:35:00
10:55 AM,38.3,21.0,50,30.22,10.0,West,9.2,19.6,N/A,,Clear,280,2013-01-04 15:55:00
11:15 AM,38.7,20.3,48,30.21,10.0,WSW,10.4,-,N/A,,Clear,250,2013-01-04 16:15:00
11:35 AM,39.2,21.0,48,30.20,10.0,West,11.5,19.6,N/A,,Clear,260,2013-01-04 16:35:00
11:55 AM,39.0,20.1,47,30.19,10.0,West,9.2,20.7,N/A,,Clear,280,2013-01-04 16:55:00
12:15 PM,39.2,20.7,47,30.18,10.0,West,15.0,19.6,N/A,,Clear,280,2013-01-04 17:15:00
12:35 PM,38.8,20.8,48,30.18,10.0,WSW,19.6,26.5,N/A,,Clear,240,2013-01-04 17:35:00
12:55 PM,37.9,20.5,49,30.18,10.0,West,13.8,20.7,N/A,,Clear,260,2013-01-04 17:55:00
1:15 PM,37.9,19.9,48,30.18,10.0,West,17.3,23.0,N/A,,Clear,270,2013-01-04 18:15:00
1:35 PM,37.9,19.9,48,30.18,10.0,West,15.0,20.7,N/A,,Clear,260,2013-01-04 18:35:00
1:55 PM,37.9,19.4,47,30.17,10.0,WSW,12.7,17.3,N/A,,Clear,240,2013-01-04 18:55:00
2:15 PM,37.8,19.4,48,30.17,10.0,West,11.5,16.1,N/A,,Clear,270,2013-01-04 19:15:00
2:35 PM,38.1,20.3,49,30.16,10.0,West,12.7,21.9,N/A,,Clear,260,2013-01-04 19:35:00
2:55 PM,38.1,19.8,48,30.17,10.0,West,15.0,23.0,N/A,,Clear,270,2013-01-04 19:55:00
3:15 PM,37.9,20.3,49,30.17,10.0,West,12.7,20.7,N/A,,Clear,260,2013-01-04 20:15:00
3:35 PM,37.2,20.3,50,30.17,10.0,WSW,13.8,21.9,N/A,,Clear,250,2013-01-04 20:35:00
3:55 PM,36.5,20.8,53,30.18,10.0,West,10.4,16.1,N/A,,Clear,270,2013-01-04 20:55:00
4:15 PM,36.3,20.7,53,30.18,10.0,WSW,9.2,-,N/A,,Clear,240,2013-01-04 21:15:00
4:35 PM,35.4,20.3,54,30.18,10.0,West,10.4,-,N/A,,Clear,260,2013-01-04 21:35:00
4:55 PM,34.3,19.9,56,30.18,10.0,WSW,6.9,-,N/A,,Clear,240,2013-01-04 21:55:00
5:15 PM,34.3,19.0,54,30.18,10.0,WSW,6.9,-,N/A,,Clear,240,2013-01-04 22:15:00
5:35 PM,33.8,18.7,54,30.19,10.0,WSW,12.7,-,N/A,,Clear,250,2013-01-04 22:35:00
5:55 PM,33.3,18.7,55,30.19,10.0,WSW,15.0,20.7,N/A,,Clear,250,2013-01-04 22:55:00
6:15 PM,33.6,18.5,54,30.19,10.0,WSW,13.8,-,N/A,,Clear,250,2013-01-04 23:15:00
6:35 PM,34.0,18.7,54,30.18,10.0,WSW,18.4,23.0,N/A,,Clear,250,2013-01-04 23:35:00
6:55 PM,34.2,18.7,53,30.19,10.0,WSW,17.3,24.2,N/A,,Clear,250,2013-01-04 23:55:00
7:15 PM,35.2,19.0,52,30.19,10.0,WSW,15.0,23.0,N/A,,Clear,250,2013-01-05 00:15:00
7:35 PM,35.8,19.8,52,30.20,10.0,West,20.7,26.5,N/A,,Clear,260,2013-01-05 00:35:00
7:55 PM,36.5,20.1,52,30.20,10.0,West,20.7,27.6,N/A,,Clear,270,2013-01-05 00:55:00
8:15 PM,36.1,20.8,54,30.20,10.0,WSW,19.6,26.5,N/A,,Clear,250,2013-01-05 01:15:00
8:35 PM,36.7,20.8,53,30.20,10.0,West,20.7,28.8,N/A,,Clear,260,2013-01-05 01:35:00
8:55 PM,36.7,20.8,53,30.20,10.0,West,19.6,32.2,N/A,,Clear,260,2013-01-05 01:55:00
9:15 PM,37.0,20.7,52,30.20,10.0,West,25.3,31.1,N/A,,Clear,260,2013-01-05 02:15:00
9:35 PM,37.4,20.3,50,30.20,10.0,West,17.3,28.8,N/A,,Clear,260,2013-01-05 02:35:00
9:55 PM,37.4,19.9,49,30.21,10.0,WSW,11.5,24.2,N/A,,Clear,250,2013-01-05 02:55:00
10:35 PM,37.4,20.3,50,30.21,10.0,WSW,16.1,24.2,N/A,,Clear,240,2013-01-05 03:35:00
10:55 PM,37.2,20.8,52,30.23,10.0,West,6.9,18.4,N/A,,Clear,270,2013-01-05 03:55:00
11:15 PM,37.4,20.8,51,30.22,10.0,West,15.0,20.7,N/A,,Clear,270,2013-01-05 04:15:00
11:35 PM,37.2,20.3,50,30.22,10.0,SW,12.7,28.8,N/A,,Clear,230,2013-01-05 04:35:00
11:55 PM,36.9,20.7,52,30.22,10.0,West,9.2,16.1,N/A,,Clear,270,2013-01-05 04:55:00